createdAt,value
2018-06-08T00:01:43.801Z,18.58
2018-06-08T00:07:03.481Z,18.54
2018-06-08T00:09:30.733Z,18.56
2018-06-08T00:11:58.054Z,18.54
2018-06-08T00:14:25.328Z,18.51
2018-06-08T00:16:52.632Z,18.49
2018-06-08T00:19:19.979Z,18.47
2018-06-08T00:21:47.237Z,18.37
2018-06-08T00:24:14.612Z,18.36
2018-06-08T00:26:41.925Z,18.35
2018-06-08T00:29:09.200Z,18.40
2018-06-08T00:31:36.535Z,18.37
2018-06-08T00:34:03.842Z,18.23
2018-06-08T00:36:31.168Z,18.18
2018-06-08T00:38:58.533Z,18.22
2018-06-08T00:41:25.852Z,18.25
2018-06-08T00:43:53.098Z,18.22
2018-06-08T00:46:20.453Z,18.25
2018-06-08T00:48:47.703Z,18.24
2018-06-08T00:51:15.046Z,18.25
2018-06-08T00:53:42.373Z,18.26
2018-06-08T00:56:19.800Z,18.23
2018-06-08T00:58:47.146Z,18.25
2018-06-08T01:01:14.376Z,18.23
2018-06-08T01:03:41.617Z,18.09
2018-06-08T01:06:08.940Z,17.95
2018-06-08T01:08:36.234Z,17.82
2018-06-08T01:11:03.547Z,17.83
2018-06-08T01:13:30.853Z,17.79
2018-06-08T01:15:58.191Z,17.75
2018-06-08T01:18:25.396Z,17.79
2018-06-08T01:20:52.633Z,17.81
2018-06-08T01:23:25.792Z,17.64
2018-06-08T01:25:53.162Z,17.94
2018-06-08T01:28:20.491Z,17.95
2018-06-08T01:30:47.825Z,17.92
2018-06-08T01:33:15.143Z,17.87
2018-06-08T01:35:42.445Z,17.79
2018-06-08T01:38:09.774Z,17.83
2018-06-08T01:40:37.067Z,17.78
2018-06-08T01:43:04.293Z,17.74
2018-06-08T01:45:31.634Z,17.72
2018-06-08T01:47:58.955Z,17.71
2018-06-08T01:50:26.239Z,17.78
2018-06-08T01:52:53.578Z,17.78
2018-06-08T01:55:20.901Z,17.63
2018-06-08T01:57:48.192Z,17.68
2018-06-08T02:00:15.503Z,17.71
2018-06-08T02:02:42.859Z,17.70
2018-06-08T02:05:10.218Z,17.68
2018-06-08T02:07:37.543Z,17.70
2018-06-08T02:10:05.025Z,17.78
2018-06-08T02:12:32.333Z,17.74
2018-06-08T02:14:59.739Z,17.83
2018-06-08T02:17:27.008Z,17.78
2018-06-08T02:19:54.365Z,17.77
2018-06-08T02:22:21.626Z,17.70
2018-06-08T02:24:48.905Z,17.58
2018-06-08T02:27:16.164Z,17.38
2018-06-08T02:29:43.402Z,17.33
2018-06-08T02:32:10.680Z,17.38
2018-06-08T02:34:37.932Z,17.45
2018-06-08T02:37:05.225Z,17.36
2018-06-08T02:39:32.419Z,17.41
2018-06-08T02:41:59.666Z,17.34
2018-06-08T02:44:26.951Z,17.33
2018-06-08T02:46:54.208Z,17.24
2018-06-08T02:49:21.547Z,17.17
2018-06-08T02:51:48.846Z,17.21
2018-06-08T02:54:16.108Z,17.24
2018-06-08T02:56:44.941Z,17.29
2018-06-08T02:59:12.345Z,17.29
2018-06-08T03:01:39.654Z,17.16
2018-06-08T03:04:06.936Z,17.17
2018-06-08T03:06:34.228Z,17.13
2018-06-08T03:09:01.533Z,17.12
2018-06-08T03:11:28.808Z,17.05
2018-06-08T03:13:56.169Z,17.09
2018-06-08T03:16:23.360Z,17.19
2018-06-08T03:18:50.636Z,17.14
2018-06-08T03:21:17.909Z,17.21
2018-06-08T03:23:45.210Z,17.25
2018-06-08T03:26:12.572Z,17.06
2018-06-08T03:29:44.081Z,16.81
2018-06-08T03:32:11.373Z,16.64
2018-06-08T03:34:38.642Z,16.70
2018-06-08T03:37:05.903Z,16.80
2018-06-08T03:39:33.194Z,16.67
2018-06-08T03:42:00.492Z,16.67
2018-06-08T03:44:27.767Z,16.64
2018-06-08T03:46:55.019Z,16.68
2018-06-08T03:49:22.375Z,16.83
2018-06-08T03:51:49.781Z,16.92
2018-06-08T03:54:17.076Z,17.03
2018-06-08T03:56:47.456Z,17.11
2018-06-08T03:59:15.286Z,17.24
2018-06-08T04:01:42.517Z,17.28
2018-06-08T04:04:09.820Z,17.23
2018-06-08T04:06:37.056Z,17.15
2018-06-08T04:09:06.455Z,16.79
2018-06-08T04:11:33.751Z,17.03
2018-06-08T04:14:01.045Z,17.06
2018-06-08T04:16:28.290Z,17.17
2018-06-08T04:18:55.526Z,17.17
2018-06-08T04:21:22.824Z,17.51
2018-06-08T04:23:50.137Z,17.46
2018-06-08T04:26:17.439Z,17.59
2018-06-08T04:28:44.687Z,17.71
2018-06-08T04:31:11.993Z,17.71
2018-06-08T04:33:39.345Z,17.66
2018-06-08T04:36:06.518Z,17.59
2018-06-08T04:38:33.830Z,17.58
2018-06-08T04:41:01.052Z,17.62
2018-06-08T04:43:28.362Z,17.54
2018-06-08T04:45:55.628Z,17.48
2018-06-08T04:48:22.928Z,17.29
2018-06-08T04:50:50.265Z,17.08
2018-06-08T04:53:17.558Z,17.14
2018-06-08T04:55:44.826Z,17.27
2018-06-08T04:58:12.003Z,17.46
2018-06-08T05:00:39.274Z,17.54
2018-06-08T05:03:06.588Z,17.67
2018-06-08T05:05:33.868Z,17.82
2018-06-08T05:08:01.158Z,17.96
2018-06-08T05:13:21.184Z,18.16
2018-06-08T05:15:48.529Z,18.14
2018-06-08T05:18:16.004Z,18.22
2018-06-08T05:20:43.461Z,18.36
2018-06-08T05:23:10.799Z,18.57
2018-06-08T05:25:38.043Z,18.76
2018-06-08T05:28:05.296Z,18.87
2018-06-08T05:30:32.491Z,18.75
2018-06-08T05:32:59.732Z,18.74
2018-06-08T05:35:27.174Z,18.58
2018-06-08T05:37:54.510Z,18.45
2018-06-08T05:40:21.735Z,18.43
2018-06-08T05:42:48.967Z,18.48
2018-06-08T05:45:16.252Z,18.60
2018-06-08T05:47:43.513Z,18.72
2018-06-08T05:52:16.644Z,18.68
2018-06-08T05:54:43.943Z,18.79
2018-06-08T05:57:11.291Z,19.05
2018-06-08T06:00:02.816Z,19.18
2018-06-08T06:02:30.047Z,19.47
2018-06-08T06:04:57.373Z,19.74
2018-06-08T06:07:24.667Z,19.87
2018-06-08T06:09:51.914Z,20.29
2018-06-08T06:12:19.184Z,20.37
2018-06-08T06:14:48.484Z,20.33
2018-06-08T06:17:15.859Z,20.43
2018-06-08T06:19:43.488Z,20.06
2018-06-08T06:22:10.771Z,20.71
2018-06-08T06:24:38.037Z,20.78
2018-06-08T06:27:05.343Z,20.75
2018-06-08T06:29:32.580Z,20.81
2018-06-08T06:31:59.906Z,21.02
2018-06-08T06:34:27.203Z,21.14
2018-06-08T06:36:54.475Z,21.26
2018-06-08T06:39:21.761Z,21.39
2018-06-08T06:41:48.995Z,21.39
2018-06-08T06:44:16.240Z,21.28
2018-06-08T06:46:43.453Z,21.02
2018-06-08T06:49:10.771Z,20.85
2018-06-08T06:51:38.107Z,20.92
2018-06-08T06:54:05.350Z,20.73
2018-06-08T06:56:32.607Z,20.82
2018-06-08T06:58:59.801Z,20.87
2018-06-08T07:01:27.011Z,20.98
2018-06-08T07:03:54.254Z,21.26
2018-06-08T07:06:21.532Z,21.39
2018-06-08T07:08:48.741Z,21.67
2018-06-08T07:11:16.029Z,21.96
2018-06-08T07:13:43.320Z,22.14
2018-06-08T07:16:10.601Z,22.25
2018-06-08T07:18:37.938Z,22.40
2018-06-08T07:21:05.216Z,22.47
2018-06-08T07:23:32.532Z,22.60
2018-06-08T07:25:59.740Z,22.74
2018-06-08T07:28:27.027Z,22.83
2018-06-08T07:30:54.260Z,22.82
2018-06-08T07:33:21.508Z,23.26
2018-06-08T07:35:48.812Z,23.53
2018-06-08T07:38:16.088Z,23.90
2018-06-08T07:40:43.384Z,24.29
2018-06-08T07:43:10.660Z,24.26
2018-06-08T07:45:37.838Z,24.29
2018-06-08T07:48:05.910Z,24.07
2018-06-08T07:50:33.247Z,24.02
2018-06-08T07:53:00.572Z,24.17
2018-06-08T07:55:27.867Z,23.96
2018-06-08T07:57:55.155Z,23.97
2018-06-08T08:00:22.426Z,24.33
2018-06-08T08:02:49.674Z,24.57
2018-06-08T08:05:16.971Z,24.87
2018-06-08T08:07:44.236Z,25.09
2018-06-08T08:10:11.560Z,25.05
2018-06-08T08:12:38.783Z,25.16
2018-06-08T08:15:06.064Z,25.28
2018-06-08T08:17:33.340Z,25.24
2018-06-08T08:20:00.622Z,25.16
2018-06-08T08:22:27.877Z,25.26
2018-06-08T08:24:55.165Z,25.52
2018-06-08T08:27:22.438Z,25.54
2018-06-08T08:29:49.711Z,25.90
2018-06-08T08:32:16.966Z,25.94
2018-06-08T08:34:44.258Z,26.13
2018-06-08T08:37:11.550Z,26.54
2018-06-08T08:39:38.853Z,26.78
2018-06-08T08:42:06.128Z,26.72
2018-06-08T08:44:33.390Z,27.12
2018-06-08T08:47:00.707Z,27.64
2018-06-08T08:49:28.038Z,27.86
2018-06-08T08:51:55.357Z,28.00
2018-06-08T08:54:22.745Z,27.91
2018-06-08T08:56:50.040Z,27.43
2018-06-08T08:59:17.279Z,27.55
2018-06-08T09:01:44.496Z,27.43
2018-06-08T09:04:11.800Z,27.64
2018-06-08T09:06:39.091Z,27.72
2018-06-08T09:09:06.515Z,27.61
2018-06-08T09:11:33.812Z,27.68
2018-06-08T09:14:01.116Z,27.68
2018-06-08T09:16:28.327Z,27.60
2018-06-08T09:18:55.623Z,27.47
2018-06-08T09:21:22.898Z,27.00
2018-06-08T09:23:50.209Z,27.15
2018-06-08T09:26:17.673Z,26.97
2018-06-08T09:28:44.962Z,26.96
2018-06-08T09:31:12.202Z,27.15
2018-06-08T09:33:39.594Z,27.23
2018-06-08T09:36:06.958Z,27.11
2018-06-08T09:38:34.267Z,27.43
2018-06-08T09:41:01.522Z,27.30
2018-06-08T09:43:28.865Z,27.55
2018-06-08T09:45:56.214Z,27.32
2018-06-08T09:48:23.495Z,27.48
2018-06-08T09:50:50.860Z,27.50
2018-06-08T09:53:18.178Z,27.63
2018-06-08T09:55:45.481Z,27.33
2018-06-08T09:58:12.760Z,27.63
2018-06-08T10:00:41.170Z,28.27
2018-06-08T10:03:08.662Z,28.57
2018-06-08T10:05:35.966Z,29.03
2018-06-08T10:08:03.266Z,29.22
2018-06-08T10:10:30.591Z,29.46
2018-06-08T10:12:57.815Z,29.48
2018-06-08T10:15:25.141Z,29.54
2018-06-08T10:17:52.416Z,29.73
2018-06-08T10:20:19.742Z,29.56
2018-06-08T10:22:47.020Z,29.33
2018-06-08T10:25:14.360Z,29.84
2018-06-08T10:27:41.704Z,29.41
2018-06-08T10:30:08.980Z,29.64
2018-06-08T10:32:36.204Z,29.76
2018-06-08T10:35:03.513Z,29.75
2018-06-08T10:37:30.879Z,29.85
2018-06-08T10:39:58.141Z,29.89
2018-06-08T10:42:25.499Z,30.32
2018-06-08T10:44:52.908Z,30.73
2018-06-08T10:47:20.234Z,30.70
2018-06-08T10:49:47.487Z,30.61
2018-06-08T10:52:14.706Z,30.90
2018-06-08T10:54:41.962Z,30.35
2018-06-08T10:57:09.244Z,30.65
2018-06-08T10:59:36.507Z,30.66
2018-06-08T11:02:03.875Z,30.52
2018-06-08T11:04:31.162Z,30.84
2018-06-08T11:06:58.458Z,30.79
2018-06-08T11:09:25.802Z,30.88
2018-06-08T11:11:53.154Z,31.17
2018-06-08T11:14:20.494Z,31.67
2018-06-08T11:16:47.832Z,31.77
2018-06-08T11:19:15.132Z,32.05
2018-06-08T11:21:42.409Z,32.36
2018-06-08T11:24:09.811Z,31.88
2018-06-08T11:26:37.247Z,32.05
2018-06-08T11:29:04.513Z,32.24
2018-06-08T11:31:31.790Z,32.51
2018-06-08T11:33:59.103Z,32.63
2018-06-08T11:36:26.366Z,32.25
2018-06-08T11:38:53.661Z,32.47
2018-06-08T11:41:20.932Z,32.40
2018-06-08T11:43:48.173Z,32.71
2018-06-08T11:46:15.456Z,32.46
2018-06-08T11:48:43.009Z,32.69
2018-06-08T11:51:10.276Z,32.76
2018-06-08T11:53:37.628Z,32.93
2018-06-08T11:56:05.031Z,32.57
2018-06-08T11:58:32.263Z,32.78
2018-06-08T12:00:59.604Z,33.07
2018-06-08T12:03:26.916Z,32.54
2018-06-08T12:05:54.249Z,32.46
2018-06-08T12:08:21.533Z,32.13
2018-06-08T12:10:48.843Z,32.12
2018-06-08T12:13:16.174Z,31.93
2018-06-08T12:15:43.551Z,32.27
2018-06-08T12:18:10.759Z,32.86
2018-06-08T12:20:38.048Z,32.67
2018-06-08T12:23:05.319Z,32.65
2018-06-08T12:25:32.590Z,33.13
2018-06-08T12:27:59.911Z,33.36
2018-06-08T12:30:27.219Z,33.45
2018-06-08T12:32:54.529Z,33.53
2018-06-08T12:35:21.823Z,33.43
2018-06-08T12:37:49.190Z,33.09
2018-06-08T12:40:16.414Z,32.99
2018-06-08T12:42:43.767Z,33.29
2018-06-08T12:45:11.051Z,33.35
2018-06-08T12:47:38.408Z,33.38
2018-06-08T12:50:05.748Z,33.54
2018-06-08T12:52:33.151Z,33.36
2018-06-08T12:55:00.472Z,33.37
2018-06-08T12:57:27.850Z,32.91
2018-06-08T12:59:55.155Z,33.22
2018-06-08T13:02:22.618Z,33.60
2018-06-08T13:04:49.899Z,32.95
2018-06-08T13:07:17.160Z,32.75
2018-06-08T13:09:44.576Z,32.81
2018-06-08T13:12:11.939Z,33.24
2018-06-08T13:14:39.239Z,33.37
2018-06-08T13:17:06.739Z,33.48
2018-06-08T13:19:33.988Z,33.47
2018-06-08T13:22:01.280Z,33.66
2018-06-08T13:24:28.591Z,33.75
2018-06-08T13:26:55.920Z,33.47
2018-06-08T13:29:23.249Z,33.74
2018-06-08T13:31:50.557Z,33.94
2018-06-08T13:34:18.039Z,33.17
2018-06-08T13:36:45.371Z,32.81
2018-06-08T13:39:12.724Z,32.88
2018-06-08T13:41:40.256Z,33.14
2018-06-08T13:44:07.557Z,33.50
2018-06-08T13:46:42.169Z,33.90
2018-06-08T13:49:10.189Z,33.79
2018-06-08T13:51:37.694Z,33.39
2018-06-08T13:54:05.076Z,32.88
2018-06-08T13:56:32.395Z,32.82
2018-06-08T13:58:59.746Z,33.11
2018-06-08T14:01:27.082Z,33.28
2018-06-08T14:03:54.973Z,33.55
2018-06-08T14:06:22.281Z,33.47
2018-06-08T14:08:49.612Z,33.83
2018-06-08T14:11:16.950Z,34.23
2018-06-08T14:13:44.348Z,34.11
2018-06-08T14:16:11.629Z,33.44
2018-06-08T14:18:38.857Z,33.61
2018-06-08T14:21:06.263Z,33.37
2018-06-08T14:23:33.532Z,33.28
2018-06-08T14:28:53.756Z,34.06
2018-06-08T14:31:21.119Z,34.07
2018-06-08T14:33:48.414Z,33.85
2018-06-08T14:36:15.668Z,33.34
2018-06-08T14:38:43.117Z,33.60
2018-06-08T14:41:10.332Z,34.00
2018-06-08T14:43:37.689Z,33.63
2018-06-08T14:46:05.048Z,33.79
2018-06-08T14:48:32.405Z,34.02
2018-06-08T14:50:59.673Z,33.88
2018-06-08T14:53:26.915Z,33.39
2018-06-08T14:55:54.196Z,32.70
2018-06-08T14:58:21.876Z,32.59
2018-06-08T15:00:49.211Z,32.63
2018-06-08T15:03:16.474Z,32.66
2018-06-08T15:05:43.702Z,32.86
2018-06-08T15:11:03.682Z,33.33
2018-06-08T15:13:30.979Z,33.44
2018-06-08T15:15:58.375Z,32.99
2018-06-08T15:18:25.729Z,32.85
2018-06-08T15:20:53.082Z,33.17
2018-06-08T15:23:21.725Z,33.06
2018-06-08T15:25:49.090Z,32.62
2018-06-08T15:28:16.555Z,32.72
2018-06-08T15:30:44.988Z,32.55
2018-06-08T15:33:12.781Z,32.33
2018-06-08T15:35:40.147Z,32.61
2018-06-08T15:38:07.547Z,32.92
2018-06-08T15:40:34.950Z,32.67
2018-06-08T15:43:02.215Z,32.52
2018-06-08T15:45:29.579Z,32.23
2018-06-08T15:47:56.919Z,32.10
2018-06-08T15:50:24.446Z,31.87
2018-06-08T15:52:51.835Z,31.72
2018-06-08T15:55:19.161Z,31.64
2018-06-08T15:57:46.404Z,31.53
2018-06-08T16:00:13.793Z,31.30
2018-06-08T16:02:41.136Z,31.59
2018-06-08T16:05:08.728Z,31.67
2018-06-08T16:07:36.078Z,31.71
2018-06-08T16:10:03.511Z,31.61
2018-06-08T16:12:30.742Z,31.64
2018-06-08T16:14:58.534Z,31.53
2018-06-08T16:17:25.848Z,31.53
2018-06-08T16:19:53.147Z,31.36
2018-06-08T16:22:20.425Z,31.26
2018-06-08T16:24:47.770Z,31.12
2018-06-08T16:27:15.570Z,30.89
2018-06-08T16:29:42.897Z,30.88
2018-06-08T16:32:10.331Z,30.67
2018-06-08T16:34:37.601Z,30.59
2018-06-08T16:37:04.947Z,30.64
2018-06-08T16:39:32.183Z,30.42
2018-06-08T16:41:59.473Z,30.48
2018-06-08T16:44:26.745Z,30.32
2018-06-08T16:46:54.050Z,30.40
2018-06-08T16:49:21.428Z,30.23
2018-06-08T16:51:48.767Z,30.10
2018-06-08T16:54:16.106Z,29.91
2018-06-08T16:56:43.437Z,29.98
2018-06-08T16:59:10.898Z,29.89
2018-06-08T17:01:38.326Z,29.75
2018-06-08T17:04:05.704Z,29.70
2018-06-08T17:06:33.020Z,29.60
2018-06-08T17:09:00.359Z,29.47
2018-06-08T17:11:27.682Z,29.52
2018-06-08T17:13:55.071Z,29.35
2018-06-08T17:16:22.398Z,29.33
2018-06-08T17:18:49.721Z,29.29
2018-06-08T17:21:17.030Z,29.18
2018-06-08T17:23:44.332Z,29.18
2018-06-08T17:26:11.701Z,29.09
2018-06-08T17:28:38.932Z,29.02
2018-06-08T17:31:06.274Z,28.99
2018-06-08T17:33:33.633Z,28.90
2018-06-08T17:36:00.870Z,28.67
2018-06-08T17:38:28.234Z,28.66
2018-06-08T17:40:55.550Z,28.70
2018-06-08T17:43:29.799Z,28.69
2018-06-08T17:45:59.046Z,28.64
2018-06-08T17:48:28.926Z,27.63
2018-06-08T17:50:56.189Z,26.08
2018-06-08T17:53:23.508Z,25.20
2018-06-08T17:55:50.804Z,24.16
2018-06-08T17:58:18.182Z,23.58
2018-06-08T18:00:45.533Z,23.58
2018-06-08T18:03:12.854Z,22.72
2018-06-08T18:05:40.132Z,22.45
2018-06-08T18:08:07.392Z,22.63
2018-06-08T18:10:34.644Z,22.52
2018-06-08T18:13:02.140Z,22.44
2018-06-08T18:15:29.452Z,22.42
2018-06-08T18:17:56.967Z,22.39
2018-06-08T18:20:24.165Z,22.32
2018-06-08T18:22:51.401Z,22.32
2018-06-08T18:25:18.802Z,22.21
2018-06-08T18:27:46.043Z,22.18
2018-06-08T18:30:13.401Z,22.03
2018-06-08T18:32:40.708Z,21.83
2018-06-08T18:35:08.540Z,21.20
2018-06-08T18:37:35.841Z,20.89
2018-06-08T18:40:03.497Z,20.59
2018-06-08T18:42:30.807Z,20.55
2018-06-08T18:44:58.113Z,20.39
2018-06-08T18:47:25.480Z,20.44
2018-06-08T18:49:52.792Z,20.52
2018-06-08T18:52:20.084Z,20.38
2018-06-08T18:54:47.344Z,20.36
2018-06-08T18:57:14.646Z,20.29
2018-06-08T18:59:41.942Z,20.19
2018-06-08T19:02:09.193Z,19.99
2018-06-08T19:04:36.628Z,19.92
2018-06-08T19:07:03.996Z,20.09
2018-06-08T19:09:31.290Z,19.97
2018-06-08T19:11:58.633Z,19.97
2018-06-08T19:14:25.868Z,19.90
2018-06-08T19:16:53.249Z,19.93
2018-06-08T19:19:20.500Z,20.01
2018-06-08T19:21:47.792Z,20.15
2018-06-08T19:24:15.108Z,20.10
2018-06-08T19:26:42.430Z,20.04
2018-06-08T19:29:09.918Z,19.98
2018-06-08T19:31:37.238Z,20.07
2018-06-08T19:34:04.488Z,20.26
2018-06-08T19:36:31.767Z,20.26
2018-06-08T19:38:59.054Z,20.14
2018-06-08T19:41:30.772Z,19.94
2018-06-08T19:43:58.348Z,19.90
2018-06-08T19:46:25.712Z,20.05
2018-06-08T19:48:53.378Z,20.19
2018-06-08T19:51:20.682Z,20.30
2018-06-08T19:53:48.135Z,20.36
2018-06-08T19:56:15.525Z,20.25
2018-06-08T19:58:49.388Z,20.37
2018-06-08T20:01:16.716Z,20.52
2018-06-08T20:03:44.047Z,20.57
2018-06-08T20:06:48.744Z,20.29
2018-06-08T20:09:16.566Z,20.44
2018-06-08T20:11:44.047Z,20.53
2018-06-08T20:14:11.447Z,20.57
2018-06-08T20:16:41.402Z,20.55
2018-06-08T20:19:08.944Z,20.52
2018-06-08T20:21:36.343Z,20.50
2018-06-08T20:24:03.808Z,20.47
2018-06-08T20:26:31.206Z,20.42
2018-06-08T20:28:58.555Z,20.56
2018-06-08T20:31:25.909Z,20.65
2018-06-08T20:33:53.211Z,20.78
2018-06-08T20:36:20.512Z,20.88
2018-06-08T20:38:47.811Z,20.95
2018-06-08T20:41:15.154Z,20.96
2018-06-08T20:43:42.510Z,20.85
2018-06-08T20:46:09.821Z,20.81
2018-06-08T20:48:37.051Z,20.69
2018-06-08T20:51:04.360Z,20.49
2018-06-08T20:53:31.597Z,20.42
2018-06-08T20:55:59.019Z,20.46
2018-06-08T20:58:28.450Z,20.57
2018-06-08T21:00:56.305Z,20.62
2018-06-08T21:03:23.610Z,20.50
2018-06-08T21:05:50.853Z,20.17
2018-06-08T21:08:18.213Z,20.32
2018-06-08T21:10:45.547Z,20.51
2018-06-08T21:13:12.826Z,20.56
2018-06-08T21:15:40.113Z,20.65
2018-06-08T21:18:07.484Z,20.65
2018-06-08T21:20:34.856Z,20.62
2018-06-08T21:23:02.144Z,20.63
2018-06-08T21:25:29.437Z,20.56
2018-06-08T21:27:56.785Z,20.65
2018-06-08T21:30:24.075Z,20.78
2018-06-08T21:32:51.398Z,20.80
2018-06-08T21:35:18.697Z,20.88
2018-06-08T21:37:46.032Z,20.84
2018-06-08T21:40:13.387Z,20.84
2018-06-08T21:42:40.701Z,20.76
2018-06-08T21:45:08.186Z,20.75
2018-06-08T21:47:35.426Z,20.71
2018-06-08T21:50:02.831Z,20.55
2018-06-08T21:52:30.081Z,20.52
2018-06-08T21:54:57.452Z,20.63
2018-06-08T21:57:24.732Z,20.69
2018-06-08T21:59:51.995Z,20.58
2018-06-08T22:02:19.403Z,20.22
2018-06-08T22:04:46.755Z,20.18
2018-06-08T22:07:14.139Z,20.07
2018-06-08T22:09:41.459Z,20.08
2018-06-08T22:12:08.975Z,20.17
2018-06-08T22:14:36.284Z,20.28
2018-06-08T22:17:03.775Z,20.45
2018-06-08T22:19:31.129Z,20.49
2018-06-08T22:21:58.423Z,20.54
2018-06-08T22:24:25.789Z,20.61
2018-06-08T22:26:53.098Z,20.68
2018-06-08T22:29:20.338Z,20.53
2018-06-08T22:31:47.662Z,20.46
2018-06-08T22:34:14.968Z,20.32
2018-06-08T22:36:42.344Z,20.41
2018-06-08T22:39:09.706Z,20.45
2018-06-08T22:41:37.038Z,20.46
2018-06-08T22:44:04.274Z,20.53
2018-06-08T22:46:31.629Z,20.62
2018-06-08T22:48:58.869Z,20.70
2018-06-08T22:51:26.285Z,20.71
2018-06-08T22:53:53.545Z,20.65
2018-06-08T22:56:20.818Z,20.59
2018-06-08T22:58:48.157Z,20.47
2018-06-08T23:01:15.541Z,20.45
2018-06-08T23:03:42.822Z,20.41
2018-06-08T23:06:10.163Z,20.48
2018-06-08T23:08:37.372Z,20.60
2018-06-08T23:11:04.624Z,20.62
2018-06-08T23:13:32.023Z,20.60
2018-06-08T23:15:59.228Z,20.46
2018-06-08T23:18:26.520Z,20.57
2018-06-08T23:20:53.882Z,20.62
2018-06-08T23:23:21.271Z,20.72
2018-06-08T23:25:48.534Z,20.72
2018-06-08T23:31:11.606Z,20.91
2018-06-08T23:33:38.966Z,20.92
2018-06-08T23:36:06.380Z,20.86
2018-06-08T23:38:33.687Z,20.92
2018-06-08T23:41:07.089Z,18.05
2018-06-08T23:43:34.372Z,20.80
2018-06-08T23:46:01.620Z,21.01
2018-06-08T23:48:28.942Z,20.97
2018-06-08T23:50:56.223Z,21.01
2018-06-08T23:53:23.494Z,21.03
2018-06-08T23:55:50.818Z,21.04
2018-06-08T23:58:18.055Z,21.09
